Time;durP1;ratioP1;P1;durP2;ratioP2;P2;SDS_P1;SDS_P2;PMS_P1;PMS_P2;Temp;Humidity;BMP_temperature;BMP_pressure;BME280_temperature;BME280_humidity;BME280_pressure;Samples;Min_cycle;Max_cycle;Signal;HPM_P1;HPM_P2
2021/10/20 00:02:17;;;;;;;2.57;2.37;;;;;;;10.90;58.33;95833.75;5073629;28;20172;-81
2021/10/20 00:04:42;;;;;;;3.50;2.47;;;;;;;10.87;58.47;95834.88;5056100;28;20238;-80
2021/10/20 00:07:07;;;;;;;3.43;2.30;;;;;;;10.84;58.31;95822.16;5056577;28;20193;-81
2021/10/20 00:09:33;;;;;;;3.07;2.10;;;;;;;10.91;58.12;95830.19;5073538;28;20184;-81
2021/10/20 00:11:58;;;;;;;2.77;2.20;;;;;;;10.86;58.36;95828.00;5073589;28;20181;-81
2021/10/20 00:14:23;;;;;;;2.30;2.10;;;;;;;10.82;58.38;95828.44;5056209;28;20599;-80
2021/10/20 00:16:49;;;;;;;2.50;2.00;;;;;;;10.80;58.22;95827.78;5074355;28;20199;-80
2021/10/20 00:19:15;;;;;;;3.00;2.50;;;;;;;10.80;58.28;95833.78;5060635;28;20383;-80
2021/10/20 00:21:40;;;;;;;2.53;2.20;;;;;;;10.66;58.64;95832.47;5060285;28;20699;-81
2021/10/20 00:24:06;;;;;;;3.20;1.97;;;;;;;10.55;58.95;95834.41;5094755;28;20188;-79
2021/10/20 00:26:32;;;;;;;3.03;2.20;;;;;;;10.56;59.24;95829.06;5077303;28;20231;-78
2021/10/20 00:28:57;;;;;;;4.27;2.20;;;;;;;10.45;59.58;95824.03;5077017;28;20250;-79
2021/10/20 00:31:22;;;;;;;4.17;2.20;;;;;;;10.35;60.10;95823.25;5079078;28;20192;-80
2021/10/20 00:33:48;;;;;;;4.27;1.90;;;;;;;10.35;59.81;95812.88;5052637;28;20656;-80
2021/10/20 00:36:13;;;;;;;3.63;1.90;;;;;;;10.31;59.98;95817.50;5068048;28;20239;-80
2021/10/20 00:38:38;;;;;;;2.37;2.17;;;;;;;10.23;60.36;95813.97;5041388;28;20197;-79
2021/10/20 00:41:04;;;;;;;2.93;2.00;;;;;;;10.28;60.42;95810.00;5057299;28;20200;-80
2021/10/20 00:43:29;;;;;;;4.20;2.10;;;;;;;10.29;60.26;95808.22;5056155;28;20181;-81
2021/10/20 00:45:55;;;;;;;2.43;2.00;;;;;;;10.25;60.25;95805.09;5041623;28;20267;-80
2021/10/20 00:48:20;;;;;;;3.13;2.20;;;;;;;10.20;60.71;95800.28;5040929;28;20210;-80
2021/10/20 00:50:45;;;;;;;2.43;1.90;;;;;;;10.31;60.17;95796.72;5049163;28;20201;-80
2021/10/20 00:53:11;;;;;;;2.37;2.10;;;;;;;10.33;60.25;95788.81;5059288;28;20188;-80
2021/10/20 00:55:37;;;;;;;3.10;2.30;;;;;;;10.26;60.46;95787.75;5076214;28;20180;-81
2021/10/20 00:58:03;;;;;;;2.47;2.13;;;;;;;10.34;60.38;95778.31;5076731;28;20693;-79
2021/10/20 01:00:28;;;;;;;4.33;2.30;;;;;;;10.31;60.00;95781.16;5076472;28;20188;-80
2021/10/20 01:02:53;;;;;;;2.70;2.03;;;;;;;10.39;60.29;95770.91;5076442;28;20229;-79
2021/10/20 01:05:19;;;;;;;3.17;2.20;;;;;;;10.37;60.56;95759.84;5075675;28;20292;-79
2021/10/20 01:07:44;;;;;;;3.57;2.57;;;;;;;10.33;60.38;95758.47;5075818;28;20674;-80
2021/10/20 01:10:11;;;;;;;4.43;2.10;;;;;;;10.37;60.39;95757.25;5076458;28;20177;-80
2021/10/20 01:12:37;;;;;;;2.40;2.13;;;;;;;10.45;59.90;95749.56;5059315;28;20194;-80
2021/10/20 01:15:11;;;;;;;3.40;2.00;;;;;;;10.44;60.19;95739.34;5075692;28;20607;-79
2021/10/20 01:17:36;;;;;;;2.93;2.60;;;;;;;10.46;59.68;95732.22;5094192;28;20223;-79
2021/10/20 01:20:04;;;;;;;2.43;2.23;;;;;;;10.57;59.04;95739.00;5059199;28;20207;-80
2021/10/20 01:22:30;;;;;;;3.40;2.10;;;;;;;10.63;58.85;95728.06;5075939;28;20191;-80
2021/10/20 01:24:55;;;;;;;2.50;2.10;;;;;;;10.70;57.96;95727.34;5074998;28;20176;-80
2021/10/20 01:27:20;;;;;;;3.00;2.03;;;;;;;10.76;57.74;95718.94;5075576;28;20207;-80
2021/10/20 01:29:46;;;;;;;3.33;2.10;;;;;;;10.77;57.63;95715.38;5059118;28;20181;-80
2021/10/20 01:32:11;;;;;;;2.13;1.90;;;;;;;10.86;57.63;95702.50;5094114;28;20537;-80
2021/10/20 01:34:37;;;;;;;2.87;1.90;;;;;;;10.86;57.02;95703.31;5075355;28;20429;-80
2021/10/20 01:37:03;;;;;;;4.60;2.33;;;;;;;10.87;56.95;95699.78;5059112;28;20319;-80
2021/10/20 01:39:29;;;;;;;3.47;2.00;;;;;;;10.91;56.79;95695.91;5075824;28;20225;-80
2021/10/20 01:41:54;;;;;;;3.93;2.30;;;;;;;11.00;55.86;95702.00;5058822;28;20667;-79
2021/10/20 01:44:19;;;;;;;3.73;1.90;;;;;;;10.94;56.48;95687.81;5092087;28;20690;-80
2021/10/20 01:46:45;;;;;;;2.87;2.23;;;;;;;10.97;56.12;95695.34;5058915;28;20200;-80
2021/10/20 01:49:10;;;;;;;2.90;2.40;;;;;;;11.06;55.33;95688.44;5075453;28;20204;-79
2021/10/20 01:51:36;;;;;;;2.47;2.00;;;;;;;11.12;54.00;95695.63;5075453;28;20185;-79
2021/10/20 01:54:01;;;;;;;1.90;1.80;;;;;;;11.19;54.26;95682.88;5074567;28;20180;-79
2021/10/20 01:56:26;;;;;;;3.40;1.80;;;;;;;11.27;53.57;95678.56;5093366;28;20183;-80
2021/10/20 01:58:52;;;;;;;2.67;2.07;;;;;;;11.28;54.06;95668.97;5058601;28;20269;-80
2021/10/20 02:01:17;;;;;;;2.40;1.70;;;;;;;11.35;53.04;95672.63;5058614;28;20185;-79
2021/10/20 02:03:45;;;;;;;2.53;1.37;;;;;;;11.35;52.61;95668.25;5057896;28;20253;-79
2021/10/20 02:06:12;;;;;;;2.60;2.33;;;;;;;11.39;53.15;95670.53;5075493;28;20192;-79
2021/10/20 02:08:37;;;;;;;2.60;1.90;;;;;;;11.47;52.67;95668.81;5058213;28;20212;-80
2021/10/20 02:11:04;;;;;;;3.67;2.30;;;;;;;11.45;53.00;95656.94;5075213;28;20172;-79
2021/10/20 02:13:29;;;;;;;3.90;2.60;;;;;;;11.36;53.43;95658.66;5074847;28;20173;-80
2021/10/20 02:15:54;;;;;;;2.77;2.30;;;;;;;11.42;53.17;95658.06;5074742;28;20310;-80
2021/10/20 02:18:20;;;;;;;2.53;2.00;;;;;;;11.43;52.88;95657.09;5074667;28;20569;-80
2021/10/20 02:20:45;;;;;;;4.40;1.87;;;;;;;11.48;52.75;95654.84;5074840;28;20181;-80
2021/10/20 02:23:11;;;;;;;2.30;1.93;;;;;;;11.44;53.47;95650.09;5074949;28;20545;-79
2021/10/20 02:25:37;;;;;;;2.83;2.10;;;;;;;11.31;53.96;95653.91;5057405;28;20204;-80
2021/10/20 02:28:02;;;;;;;2.77;2.07;;;;;;;11.32;53.70;95646.94;5074900;28;20742;-80
2021/10/20 02:30:27;;;;;;;3.37;1.90;;;;;;;11.30;53.67;95648.84;5074684;28;20177;-80
2021/10/20 02:32:53;;;;;;;4.00;2.70;;;;;;;11.32;53.94;95650.34;5057995;28;20204;-79
2021/10/20 02:35:19;;;;;;;3.43;2.03;;;;;;;11.33;53.87;95653.75;5057148;28;20628;-79
2021/10/20 02:37:45;;;;;;;2.53;1.57;;;;;;;11.33;54.10;95641.59;5074624;28;20554;-79
2021/10/20 02:40:12;;;;;;;2.20;2.00;;;;;;;11.38;53.49;95640.31;5057599;28;20180;-79
2021/10/20 02:42:37;;;;;;;3.57;2.20;;;;;;;11.42;53.52;95633.84;5057799;28;20267;-80
2021/10/20 02:45:03;;;;;;;3.10;1.90;;;;;;;11.36;53.77;95635.25;5056448;28;20292;-79
2021/10/20 02:47:29;;;;;;;2.90;1.93;;;;;;;11.53;52.89;95634.41;5073997;28;20678;-79
2021/10/20 02:49:54;;;;;;;2.53;2.20;;;;;;;11.55;52.50;95627.28;5057877;28;20583;-79
2021/10/20 02:52:19;;;;;;;2.87;2.10;;;;;;;11.47;52.47;95626.41;5074493;28;20207;-79
2021/10/20 02:54:45;;;;;;;3.10;1.87;;;;;;;11.51;52.62;95625.16;5074041;28;20564;-79
2021/10/20 02:57:10;;;;;;;3.47;2.07;;;;;;;11.49;52.82;95633.09;5057311;28;20184;-79
2021/10/20 02:59:35;;;;;;;1.90;1.70;;;;;;;11.51;52.65;95625.97;5074360;28;20176;-79
2021/10/20 03:02:01;;;;;;;3.73;2.10;;;;;;;11.44;52.88;95619.72;5057533;28;20184;-79
2021/10/20 03:04:26;;;;;;;1.77;1.63;;;;;;;11.51;52.85;95614.75;5057375;28;20236;-79
2021/10/20 03:06:54;;;;;;;2.47;1.77;;;;;;;11.42;52.96;95616.47;5074281;28;20618;-80
2021/10/20 03:09:20;;;;;;;3.00;1.97;;;;;;;11.39;53.29;95600.31;5057484;28;20192;-79
2021/10/20 03:11:45;;;;;;;1.90;1.80;;;;;;;11.42;53.39;95603.47;5074150;28;20187;-80
2021/10/20 03:14:10;;;;;;;3.00;1.97;;;;;;;11.41;53.48;95594.03;5091814;28;20180;-79
2021/10/20 03:16:35;;;;;;;3.13;2.00;;;;;;;11.39;53.14;95603.75;5074332;28;20172;-80
2021/10/20 03:19:01;;;;;;;2.13;1.90;;;;;;;11.43;53.26;95592.09;5057273;28;20227;-80
2021/10/20 03:21:26;;;;;;;3.47;1.90;;;;;;;11.47;52.92;95588.19;5057420;28;20183;-80
2021/10/20 03:23:52;;;;;;;2.60;1.87;;;;;;;11.55;52.86;95590.03;5073631;28;20195;-80
2021/10/20 03:26:17;;;;;;;3.50;2.00;;;;;;;11.62;52.28;95588.47;5074192;28;20204;-80
2021/10/20 03:28:42;;;;;;;3.93;2.07;;;;;;;11.61;52.70;95590.25;5074170;28;20725;-80
2021/10/20 03:31:08;;;;;;;4.10;2.10;;;;;;;11.62;52.78;95581.50;5074023;28;20689;-79
2021/10/20 03:33:33;;;;;;;1.97;1.77;;;;;;;11.50;53.18;95582.72;5056230;28;20188;-80
2021/10/20 03:35:58;;;;;;;3.23;1.90;;;;;;;11.45;53.46;95584.13;5074155;28;20238;-80
2021/10/20 03:38:23;;;;;;;2.37;2.07;;;;;;;11.42;54.12;95574.03;5057072;28;20228;-80
2021/10/20 03:40:49;;;;;;;3.63;2.20;;;;;;;11.31;54.53;95575.94;5058310;28;20616;-79
2021/10/20 03:43:14;;;;;;;2.33;1.83;;;;;;;11.30;54.67;95574.28;5056900;28;20203;-79
2021/10/20 03:45:39;;;;;;;3.07;2.20;;;;;;;11.25;54.98;95578.31;5055453;28;20211;-79
2021/10/20 03:48:05;;;;;;;2.10;1.90;;;;;;;11.23;55.04;95580.25;5073676;28;20242;-80
2021/10/20 03:50:30;;;;;;;4.50;2.20;;;;;;;11.20;55.23;95570.13;5056693;28;20173;-79
2021/10/20 03:52:55;;;;;;;4.50;2.40;;;;;;;11.18;55.31;95582.47;5094411;28;20734;-79
2021/10/20 03:55:21;;;;;;;3.87;2.20;;;;;;;11.16;55.21;95574.81;5060405;28;20645;-81
2021/10/20 03:57:46;;;;;;;2.40;2.10;;;;;;;11.11;55.69;95571.03;5060611;28;20197;-81
2021/10/20 04:00:15;;;;;;;3.43;2.13;;;;;;;11.06;55.93;95571.50;5060634;28;20216;-79
2021/10/20 04:02:44;;;;;;;3.10;2.20;;;;;;;11.01;56.27;95571.13;5060470;28;20207;-80
2021/10/20 04:05:17;;;;;;;4.57;2.37;;;;;;;10.99;56.23;95570.47;5077819;28;20192;-80
2021/10/20 04:07:43;;;;;;;2.93;2.20;;;;;;;10.90;56.39;95563.56;5061160;28;20212;-80
2021/10/20 04:10:12;;;;;;;2.90;2.63;;;;;;;10.86;56.79;95567.41;5077685;28;20279;-80
2021/10/20 04:12:37;;;;;;;2.20;1.97;;;;;;;10.76;57.12;95564.88;5077393;28;20189;-79
2021/10/20 04:15:04;;;;;;;3.23;2.30;;;;;;;10.76;57.23;95564.88;5076803;28;20171;-80
2021/10/20 04:17:29;;;;;;;2.40;2.10;;;;;;;10.77;57.19;95564.72;5095551;28;20201;-80
2021/10/20 04:19:54;;;;;;;2.77;2.10;;;;;;;10.72;57.31;95571.34;5077836;28;20177;-80
2021/10/20 04:22:20;;;;;;;2.27;2.07;;;;;;;10.77;57.38;95579.50;5077473;28;20257;-79
2021/10/20 04:24:45;;;;;;;2.87;1.97;;;;;;;10.75;57.48;95561.47;5060203;28;20176;-79
2021/10/20 04:27:10;;;;;;;3.50;2.43;;;;;;;10.68;57.82;95570.81;5061604;28;20338;-80
2021/10/20 04:29:35;;;;;;;2.93;2.40;;;;;;;10.66;57.93;95561.53;5096172;28;20661;-80
2021/10/20 04:32:01;;;;;;;2.73;2.20;;;;;;;10.51;58.34;95566.41;5077771;28;20173;-80
2021/10/20 04:34:26;;;;;;;3.23;1.90;;;;;;;10.53;58.85;95561.09;5076051;28;20188;-79
2021/10/20 04:36:51;;;;;;;3.70;2.30;;;;;;;10.42;59.20;95562.94;5077076;28;20173;-79
2021/10/20 04:39:17;;;;;;;3.50;2.03;;;;;;;10.31;59.45;95557.94;5095021;28;20622;-80
2021/10/20 04:41:42;;;;;;;2.50;2.20;;;;;;;10.26;59.77;95561.94;5076405;28;20264;-80
2021/10/20 04:44:07;;;;;;;3.57;2.07;;;;;;;10.19;59.95;95553.88;5059462;28;20301;-79
2021/10/20 04:46:32;;;;;;;3.77;2.23;;;;;;;10.26;59.94;95544.59;5060363;28;20289;-79
2021/10/20 04:48:58;;;;;;;2.70;2.20;;;;;;;10.16;60.09;95549.81;5076636;28;20295;-79
2021/10/20 04:51:23;;;;;;;2.60;2.20;;;;;;;10.20;60.28;95550.31;5060284;28;20238;-79
2021/10/20 04:53:49;;;;;;;2.70;2.50;;;;;;;10.09;60.65;95547.94;5094166;28;20669;-79
2021/10/20 04:56:14;;;;;;;2.77;2.20;;;;;;;10.09;60.51;95546.16;5058412;28;20172;-79
2021/10/20 04:58:39;;;;;;;2.93;2.27;;;;;;;10.10;60.71;95547.78;5054291;28;20269;-80
2021/10/20 05:01:05;;;;;;;4.70;2.43;;;;;;;9.98;60.96;95551.50;5084965;28;20659;-80
2021/10/20 05:03:30;;;;;;;3.67;2.60;;;;;;;9.91;60.93;95546.09;5074899;28;20180;-82
2021/10/20 05:05:55;;;;;;;2.93;2.00;;;;;;;9.85;61.21;95533.69;5090238;28;20572;-79
2021/10/20 05:08:21;;;;;;;3.73;2.20;;;;;;;9.79;61.90;95534.25;5078658;28;20269;-79
2021/10/20 05:10:46;;;;;;;2.73;2.10;;;;;;;9.79;61.69;95534.25;5088914;28;20177;-79
2021/10/20 05:13:12;;;;;;;2.70;2.00;;;;;;;9.69;62.07;95530.06;5084396;28;20182;-79
2021/10/20 05:15:38;;;;;;;4.70;2.30;;;;;;;9.66;62.05;95526.00;5086636;28;20185;-79
2021/10/20 05:18:04;;;;;;;2.60;2.30;;;;;;;9.59;62.44;95535.31;5057221;28;20190;-79
2021/10/20 05:20:29;;;;;;;2.60;2.00;;;;;;;9.58;62.45;95528.47;5060307;28;20191;-80
2021/10/20 05:22:54;;;;;;;2.90;2.57;;;;;;;9.47;63.37;95528.66;5071190;28;20173;-79
2021/10/20 05:25:20;;;;;;;2.60;2.13;;;;;;;9.48;62.86;95523.34;5074823;28;20266;-78
2021/10/20 05:27:45;;;;;;;2.63;2.37;;;;;;;9.46;63.59;95530.44;5077180;28;20333;-78
2021/10/20 05:30:11;;;;;;;3.00;2.40;;;;;;;9.45;63.33;95523.59;5074848;28;20211;-79
2021/10/20 05:32:36;;;;;;;3.63;2.53;;;;;;;9.45;63.09;95525.38;5090564;28;20191;-79
2021/10/20 05:35:02;;;;;;;2.80;2.47;;;;;;;9.41;63.58;95517.06;5074543;28;20184;-78
2021/10/20 05:37:27;;;;;;;3.47;2.80;;;;;;;9.44;63.38;95519.38;5075038;28;20679;-78
2021/10/20 05:39:53;;;;;;;2.77;2.47;;;;;;;9.38;63.60;95521.72;5089620;28;20184;-79
2021/10/20 05:42:19;;;;;;;3.87;2.30;;;;;;;9.37;63.85;95513.16;5065170;28;20188;-79
2021/10/20 05:44:44;;;;;;;3.13;2.00;;;;;;;9.42;63.79;95512.72;5089496;28;20184;-78
2021/10/20 05:47:10;;;;;;;3.00;2.20;;;;;;;9.35;63.93;95513.25;5062161;28;20203;-78
2021/10/20 05:49:35;;;;;;;2.83;2.27;;;;;;;9.29;64.53;95516.44;5075457;28;20211;-79
2021/10/20 05:52:00;;;;;;;3.27;2.40;;;;;;;9.27;64.56;95515.72;5086546;28;20195;-79
2021/10/20 05:54:25;;;;;;;2.43;2.20;;;;;;;9.26;64.49;95515.88;5085005;28;20216;-78
2021/10/20 05:56:51;;;;;;;3.73;2.30;;;;;;;9.27;64.67;95520.91;5081479;28;20243;-78
2021/10/20 05:59:22;;;;;;;3.77;2.23;;;;;;;9.38;63.68;95514.78;5077587;28;20206;-78
2021/10/20 06:01:48;;;;;;;6.30;3.17;;;;;;;9.42;63.90;95510.13;5072905;28;20218;-77
2021/10/20 06:04:14;;;;;;;3.87;2.37;;;;;;;9.48;63.66;95510.38;5064524;28;20188;-79
2021/10/20 06:06:39;;;;;;;2.70;2.13;;;;;;;9.49;63.86;95521.56;5093776;28;20606;-80
2021/10/20 06:09:05;;;;;;;3.60;2.70;;;;;;;9.54;63.88;95517.59;5084505;28;20219;-81
2021/10/20 06:11:30;;;;;;;2.80;2.30;;;;;;;9.66;63.52;95523.41;5079295;28;20184;-80
2021/10/20 06:13:56;;;;;;;2.70;2.50;;;;;;;9.72;63.63;95515.06;5098183;28;20176;-81
2021/10/20 06:16:21;;;;;;;2.37;2.17;;;;;;;9.73;63.49;95515.88;5068304;28;20176;-81
2021/10/20 06:18:46;;;;;;;4.13;2.30;;;;;;;9.75;63.72;95519.16;5074613;28;20263;-79
2021/10/20 06:21:12;;;;;;;2.87;2.50;;;;;;;9.68;64.36;95525.84;5077089;28;20172;-77
2021/10/20 06:23:37;;;;;;;3.07;2.00;;;;;;;9.69;64.17;95515.34;5082078;28;20184;-78
2021/10/20 06:26:02;;;;;;;2.40;2.20;;;;;;;9.72;64.19;95514.22;5074054;28;20204;-78
2021/10/20 06:28:28;;;;;;;2.53;2.33;;;;;;;9.73;64.15;95511.50;5061105;28;20207;-78
2021/10/20 06:30:53;;;;;;;2.87;2.33;;;;;;;9.75;64.07;95508.78;5088881;28;20551;-78
2021/10/20 06:33:18;;;;;;;3.47;2.80;;;;;;;9.76;64.02;95505.22;5075136;28;20215;-78
2021/10/20 06:35:44;;;;;;;3.57;2.63;;;;;;;9.79;64.08;95507.50;5078445;28;20195;-78
2021/10/20 06:38:09;;;;;;;3.27;2.27;;;;;;;9.89;64.74;95508.28;5076387;28;20204;-77
2021/10/20 06:40:34;;;;;;;2.33;2.13;;;;;;;9.96;64.29;95501.56;5112318;28;20195;-77
2021/10/20 06:43:00;;;;;;;3.00;2.60;;;;;;;10.13;63.85;95502.56;5083765;28;20184;-78
2021/10/20 06:45:25;;;;;;;3.20;2.90;;;;;;;10.25;63.22;95500.59;5069243;28;20223;-78
2021/10/20 06:47:51;;;;;;;5.57;3.37;;;;;;;10.43;62.97;95496.25;5067312;28;20204;-79
2021/10/20 06:50:17;;;;;;;5.33;4.30;;;;;;;10.49;62.54;95493.88;5069115;28;20177;-79
2021/10/20 06:52:42;;;;;;;7.13;5.57;;;;;;;10.56;62.43;95490.69;5053666;28;20268;-78
2021/10/20 06:55:09;;;;;;;5.27;4.77;;;;;;;10.75;62.25;95498.31;5047045;28;20200;-79
2021/10/20 06:57:34;;;;;;;4.60;3.83;;;;;;;10.89;61.60;95490.00;5076227;28;20609;-80
2021/10/20 06:59:59;;;;;;;3.83;3.40;;;;;;;10.94;61.33;95495.53;5077793;28;20204;-78
2021/10/20 07:02:25;;;;;;;3.30;3.00;;;;;;;11.02;61.68;95490.41;5063273;28;20202;-78
2021/10/20 07:04:50;;;;;;;4.47;3.00;;;;;;;11.07;61.70;95492.56;5077226;28;20204;-79
2021/10/20 07:07:15;;;;;;;4.23;3.83;;;;;;;11.12;61.55;95494.69;5075540;28;20204;-79
2021/10/20 07:09:41;;;;;;;4.43;2.80;;;;;;;11.24;61.16;95493.50;5075732;28;20187;-78
2021/10/20 07:12:06;;;;;;;3.87;2.60;;;;;;;11.33;60.80;95483.00;5094562;28;20263;-78
2021/10/20 07:14:31;;;;;;;2.60;2.40;;;;;;;11.47;60.36;95489.38;5089527;28;20213;-78
2021/10/20 07:16:58;;;;;;;3.63;2.47;;;;;;;11.57;60.10;95482.31;5073027;28;20177;-78
2021/10/20 07:19:24;;;;;;;3.37;2.10;;;;;;;11.67;59.95;95487.41;5083034;28;20715;-78
2021/10/20 07:21:49;;;;;;;4.33;2.40;;;;;;;11.81;59.86;95488.63;5077206;28;20203;-79
2021/10/20 07:24:15;;;;;;;2.53;2.20;;;;;;;11.95;60.47;95474.22;5105303;28;20651;-78
2021/10/20 07:26:40;;;;;;;3.30;2.37;;;;;;;12.03;60.38;95474.22;5092244;28;20260;-79
2021/10/20 07:29:05;;;;;;;2.67;2.23;;;;;;;12.12;60.92;95468.88;5073095;28;20632;-78
2021/10/20 07:31:31;;;;;;;2.83;2.40;;;;;;;12.20;61.13;95468.09;5052100;28;20191;-79
2021/10/20 07:33:57;;;;;;;3.87;2.50;;;;;;;12.28;61.47;95477.69;5070534;28;20187;-79
2021/10/20 07:36:23;;;;;;;3.87;2.60;;;;;;;12.32;61.57;95473.81;5093274;28;20182;-79
2021/10/20 07:38:49;;;;;;;2.60;2.40;;;;;;;12.42;60.71;95472.69;5072403;28;20205;-79
2021/10/20 07:41:14;;;;;;;6.20;2.57;;;;;;;12.51;60.55;95468.31;5093154;28;20185;-80
2021/10/20 07:43:40;;;;;;;3.53;2.80;;;;;;;12.69;60.35;95455.13;5074692;28;20778;-78
2021/10/20 07:46:05;;;;;;;2.77;2.47;;;;;;;12.80;59.96;95452.19;5090027;28;20230;-78
2021/10/20 07:48:30;;;;;;;2.73;2.33;;;;;;;12.97;59.59;95447.78;5106589;28;20208;-79
2021/10/20 07:50:56;;;;;;;7.10;2.83;;;;;;;13.08;60.14;95450.06;5090318;28;20188;-79
2021/10/20 07:53:21;;;;;;;4.03;2.73;;;;;;;13.18;59.56;95444.66;5069003;28;20195;-79
2021/10/20 07:55:46;;;;;;;2.67;2.30;;;;;;;13.36;58.86;95436.69;5092615;28;20179;-79
2021/10/20 07:58:12;;;;;;;4.40;2.63;;;;;;;13.54;58.47;95429.44;5077821;28;20647;-80
2021/10/20 08:00:37;;;;;;;5.00;2.33;;;;;;;13.68;58.25;95426.13;5079360;28;20213;-79
2021/10/20 08:03:02;;;;;;;4.43;2.60;;;;;;;13.79;57.78;95433.59;5089484;28;20207;-80
2021/10/20 08:05:28;;;;;;;3.43;2.33;;;;;;;14.00;56.83;95450.44;5076612;28;20200;-80
2021/10/20 08:07:53;;;;;;;2.40;2.20;;;;;;;14.10;56.52;95445.81;5094746;28;20207;-79
2021/10/20 08:10:24;;;;;;;5.80;3.30;;;;;;;14.30;56.70;95451.41;5095932;28;20172;-81
2021/10/20 08:12:49;;;;;;;4.97;3.23;;;;;;;14.44;56.21;95443.66;5069952;28;20240;-80
2021/10/20 08:15:15;;;;;;;5.00;4.50;;;;;;;14.61;56.07;95444.38;5074852;28;20434;-81
2021/10/20 08:17:41;;;;;;;6.63;6.00;;;;;;;14.79;55.86;95444.09;5103845;28;20218;-83
2021/10/20 08:20:11;;;;;;;3.67;3.20;;;;;;;14.91;55.23;95445.28;5068871;28;20177;-80
2021/10/20 08:22:37;;;;;;;2.97;2.67;;;;;;;15.13;55.17;95442.81;5065225;28;20173;-79
2021/10/20 08:25:04;;;;;;;3.17;2.97;;;;;;;15.27;55.53;95442.81;5086958;28;20180;-81
2021/10/20 08:27:30;;;;;;;4.17;2.80;;;;;;;15.38;55.53;95444.22;5074230;28;20223;-80
2021/10/20 08:29:55;;;;;;;3.63;3.33;;;;;;;15.46;55.57;95440.66;5075074;28;20222;-80
2021/10/20 08:32:21;;;;;;;2.97;2.57;;;;;;;15.53;55.23;95450.22;5081206;28;20256;-79
2021/10/20 08:34:47;;;;;;;7.07;4.90;;;;;;;15.70;55.21;95429.16;5063259;28;20287;-80
2021/10/20 08:37:12;;;;;;;25.42;13.75;;;;;;;15.63;55.13;95417.78;5062226;28;20174;-79
2021/10/20 08:39:38;;;;;;;60.00;25.63;;;;;;;15.74;54.64;95419.94;5069495;28;20266;-79
2021/10/20 08:42:04;;;;;;;21.23;9.48;;;;;;;15.80;54.41;95413.97;5067917;28;20534;-81
2021/10/20 08:44:32;;;;;;;40.55;19.70;;;;;;;15.92;54.37;95422.19;5069516;28;20586;-80
2021/10/20 08:46:57;;;;;;;25.35;13.95;;;;;;;16.09;54.32;95418.34;5061051;28;20212;-81
2021/10/20 08:49:24;;;;;;;9.77;5.97;;;;;;;16.35;53.54;95408.16;5069629;28;20176;-80
2021/10/20 08:51:50;;;;;;;10.15;5.75;;;;;;;16.56;52.88;95402.09;5058621;28;20174;-81
2021/10/20 08:54:15;;;;;;;8.52;4.15;;;;;;;16.73;51.67;95394.81;5063154;28;20651;-80
2021/10/20 08:56:44;;;;;;;8.82;4.95;;;;;;;16.98;50.62;95390.78;5080977;28;20240;-80
2021/10/20 08:59:10;;;;;;;3.67;3.05;;;;;;;17.15;50.88;95401.78;5070538;28;20197;-79
2021/10/20 09:01:36;;;;;;;6.00;2.63;;;;;;;17.16;50.61;95399.97;5055939;28;20271;-79
2021/10/20 09:04:05;;;;;;;5.05;3.95;;;;;;;17.21;50.72;95397.56;5089948;28;20207;-80
2021/10/20 09:06:31;;;;;;;2.67;2.20;;;;;;;17.29;51.09;95389.56;5079460;28;20683;-79
2021/10/20 09:08:56;;;;;;;4.82;3.70;;;;;;;17.19;51.14;95382.03;5085377;28;20219;-82
2021/10/20 09:11:33;;;;;;;6.75;5.13;;;;;;;17.32;51.80;95372.63;5060859;28;20183;-80
2021/10/20 09:14:06;;;;;;;4.60;3.28;;;;;;;17.27;50.83;95376.63;5064215;28;20172;-80
2021/10/20 09:16:33;;;;;;;7.78;6.10;;;;;;;17.32;50.95;95378.69;5078062;28;20184;-80
2021/10/20 09:18:59;;;;;;;2.90;2.60;;;;;;;17.38;50.96;95371.84;5050985;28;20284;-79
2021/10/20 09:21:26;;;;;;;5.15;4.13;;;;;;;17.14;51.49;95378.34;5057378;28;20623;-79
2021/10/20 09:23:51;;;;;;;5.25;3.63;;;;;;;17.21;51.67;95379.19;5054071;28;20204;-79
2021/10/20 09:26:17;;;;;;;5.55;4.85;;;;;;;17.39;50.99;95384.75;5079181;28;20204;-79
2021/10/20 09:28:42;;;;;;;7.00;4.60;;;;;;;17.51;51.16;95371.91;5073697;28;20257;-80
2021/10/20 09:31:10;;;;;;;5.00;3.63;;;;;;;17.65;50.80;95376.22;5059278;28;20218;-80
2021/10/20 09:33:36;;;;;;;12.57;8.98;;;;;;;17.87;50.68;95365.63;5061840;28;20651;-80
2021/10/20 09:36:14;;;;;;;6.20;4.38;;;;;;;17.88;50.53;95367.25;5058159;28;20187;-81
2021/10/20 09:38:46;;;;;;;10.25;7.07;;;;;;;18.10;50.17;95355.56;5059538;28;20206;-80
2021/10/20 09:41:12;;;;;;;7.75;4.35;;;;;;;17.96;49.49;95351.31;5077976;28;20184;-80
2021/10/20 09:43:52;;;;;;;4.40;2.88;;;;;;;18.11;50.15;95362.47;5073057;28;20176;-80
2021/10/20 09:46:47;;;;;;;4.60;3.22;;;;;;;18.23;50.26;95355.63;5074861;28;20196;-81
2021/10/20 09:49:20;;;;;;;2.50;2.28;;;;;;;18.34;50.26;95351.59;5056455;28;20208;-80
2021/10/20 09:51:47;;;;;;;2.78;2.50;;;;;;;18.16;49.79;95357.41;5079840;28;20199;-80
2021/10/20 09:54:30;;;;;;;3.08;2.78;;;;;;;18.30;48.98;95353.00;5062173;28;20172;-79
2021/10/20 09:56:56;;;;;;;2.60;2.35;;;;;;;18.31;48.75;95359.88;5060600;28;20271;-79
2021/10/20 09:59:22;;;;;;;2.47;1.95;;;;;;;18.09;47.82;95352.13;5086476;28;20188;-79
2021/10/20 10:01:48;;;;;;;2.65;2.10;;;;;;;18.40;48.57;95342.91;5094792;28;20668;-78
2021/10/20 10:04:14;;;;;;;3.22;1.73;;;;;;;18.34;48.36;95351.59;5068840;28;20220;-80
2021/10/20 10:06:39;;;;;;;4.55;2.25;;;;;;;18.38;48.62;95344.94;5084351;28;20196;-78
2021/10/20 10:09:11;;;;;;;2.53;2.33;;;;;;;18.17;48.76;95348.53;5065435;28;20200;-79
2021/10/20 10:11:41;;;;;;;2.53;1.88;;;;;;;18.18;48.43;95344.06;5078909;28;20179;-80
2021/10/20 10:14:07;;;;;;;2.78;2.00;;;;;;;18.28;48.29;95358.44;5091744;28;20175;-81
2021/10/20 10:16:34;;;;;;;3.20;1.98;;;;;;;18.21;48.88;95357.66;5086660;28;20231;-80
2021/10/20 10:19:01;;;;;;;2.03;1.92;;;;;;;18.16;48.90;95348.72;5087933;28;20679;-81
2021/10/20 10:21:36;;;;;;;1.95;1.85;;;;;;;18.26;48.96;95342.06;5076441;28;20169;-80
2021/10/20 10:24:04;;;;;;;2.95;2.03;;;;;;;18.18;49.25;95352.78;5073440;28;20261;-80
2021/10/20 10:26:37;;;;;;;3.15;2.20;;;;;;;18.25;48.67;95353.59;5091392;28;20563;-82
2021/10/20 10:29:13;;;;;;;2.78;2.50;;;;;;;18.34;49.15;95365.53;5046509;28;20200;-79
2021/10/20 10:31:43;;;;;;;4.50;2.33;;;;;;;18.23;49.39;95366.13;5055834;28;20199;-80
2021/10/20 10:34:24;;;;;;;2.25;2.00;;;;;;;18.50;48.82;95358.28;5087597;28;20274;-80
2021/10/20 10:36:54;;;;;;;3.38;2.10;;;;;;;18.71;48.83;95358.13;5080508;28;20176;-81
2021/10/20 10:39:20;;;;;;;2.40;2.20;;;;;;;18.81;48.21;95355.06;5084636;28;20640;-80
2021/10/20 10:41:48;;;;;;;2.53;1.63;;;;;;;19.05;48.78;95353.66;5093419;28;20203;-81
2021/10/20 10:44:16;;;;;;;2.20;2.00;;;;;;;19.29;48.30;95358.25;5073360;28;20651;-80
2021/10/20 10:46:51;;;;;;;2.15;1.95;;;;;;;19.07;47.56;95356.88;5070582;28;20201;-81
2021/10/20 10:49:28;;;;;;;2.60;2.15;;;;;;;19.11;48.56;95342.31;5096087;28;20203;-80
2021/10/20 10:52:13;;;;;;;2.33;2.13;;;;;;;18.96;48.13;95338.06;5092940;28;20180;-80
2021/10/20 10:54:40;;;;;;;2.10;1.90;;;;;;;18.94;49.21;95339.28;5059474;28;20533;-79
2021/10/20 10:57:13;;;;;;;2.55;1.90;;;;;;;18.86;48.20;95340.31;5061951;28;20169;-78
2021/10/20 10:59:38;;;;;;;3.47;2.08;;;;;;;19.06;49.33;95334.22;5067278;28;20184;-80
2021/10/20 11:02:36;;;;;;;3.97;2.40;;;;;;;19.06;48.16;95328.94;5076923;28;20192;-79
2021/10/20 11:05:02;;;;;;;2.58;1.98;;;;;;;19.19;48.05;95334.19;5064062;28;20974;-79
2021/10/20 11:07:28;;;;;;;3.53;2.03;;;;;;;19.35;47.66;95315.31;5082120;28;20220;-80
2021/10/20 11:09:56;;;;;;;2.40;2.20;;;;;;;19.38;47.54;95314.91;5073086;28;20671;-80
2021/10/20 11:12:24;;;;;;;4.40;2.00;;;;;;;19.46;48.10;95314.66;5090932;28;20179;-80
2021/10/20 11:14:51;;;;;;;2.78;2.00;;;;;;;19.38;47.72;95304.38;5073585;28;20174;-79
2021/10/20 11:17:17;;;;;;;5.88;2.05;;;;;;;19.46;48.10;95296.25;5075194;28;20269;-79
2021/10/20 11:19:42;;;;;;;2.00;1.90;;;;;;;19.66;47.77;95303.28;5073700;28;20634;-79
2021/10/20 11:22:08;;;;;;;2.33;2.05;;;;;;;19.89;47.73;95310.66;5062572;28;20196;-79
2021/10/20 11:24:35;;;;;;;5.95;2.05;;;;;;;20.33;46.90;95304.50;5076168;28;20172;-79
2021/10/20 11:27:05;;;;;;;4.75;2.28;;;;;;;20.43;46.24;95296.97;5083168;28;20288;-79
2021/10/20 11:29:42;;;;;;;3.28;1.80;;;;;;;20.36;46.20;95298.81;5064679;28;20183;-79
2021/10/20 11:32:10;;;;;;;3.50;2.00;;;;;;;20.24;46.05;95289.97;5074716;28;20692;-79